Time;durP1;ratioP1;P1;durP2;ratioP2;P2;SDS_P1;SDS_P2;PMS_P1;PMS_P2;Temp;Humidity;BMP_temperature;BMP_pressure;BME280_temperature;BME280_humidity;BME280_pressure;Samples;Min_cycle;Max_cycle;Signal;HPM_P1;HPM_P2
2022/06/15 00:00:33;;;;;;;16.05;10.15;;;;;;;;;;1775618;79;21090;-79
2022/06/15 00:03:07;;;;;;;14.73;10.28;;;;;;;;;;1767132;80;21297;-78
2022/06/15 00:05:42;;;;;;;17.27;10.72;;;;;;;;;;1796526;79;21241;-78
2022/06/15 00:08:14;;;;;;;20.35;10.82;;;;;;;;;;1775642;79;21165;-79
2022/06/15 00:10:48;;;;;;;15.58;10.82;;;;;;;;;;1757931;80;21715;-79
2022/06/15 00:13:21;;;;;;;19.10;11.18;;;;;;;;;;1791069;78;21224;-78
2022/06/15 00:15:54;;;;;;;17.42;10.63;;;;;;;;;;1789425;79;21224;-78
2022/06/15 00:18:28;;;;;;;16.93;11.53;;;;;;;;;;1776079;79;21174;-78
2022/06/15 00:21:02;;;;;;;16.52;10.48;;;;;;;;;;1787593;79;21260;-78
2022/06/15 00:23:35;;;;;;;14.28;10.15;;;;;;;;;;1796326;79;21170;-77
2022/06/15 00:26:09;;;;;;;16.90;10.28;;;;;;;;;;1780883;78;21193;-76
2022/06/15 00:28:43;;;;;;;19.55;10.20;;;;;;;;;;1775392;79;21511;-79
2022/06/15 00:31:16;;;;;;;18.92;10.93;;;;;;;;;;1810517;78;21202;-77
2022/06/15 00:33:50;;;;;;;18.17;10.95;;;;;;;;;;1758489;80;21236;-78
2022/06/15 00:36:22;;;;;;;16.77;10.45;;;;;;;;;;1757395;80;21134;-79
2022/06/15 00:38:56;;;;;;;19.07;10.40;;;;;;;;;;1741239;80;21181;-77
2022/06/15 00:41:31;;;;;;;15.25;10.32;;;;;;;;;;1795574;80;21491;-77
2022/06/15 00:44:07;;;;;;;18.17;10.28;;;;;;;;;;1783540;79;21231;-77
2022/06/15 00:46:41;;;;;;;18.85;10.30;;;;;;;;;;1745412;80;21175;-79
2022/06/15 00:49:16;;;;;;;16.95;10.10;;;;;;;;;;1785469;78;21204;-76
2022/06/15 00:51:51;;;;;;;16.85;10.23;;;;;;;;;;1808775;78;21203;-77
2022/06/15 00:54:25;;;;;;;13.53;10.82;;;;;;;;;;1807060;78;21719;-76
2022/06/15 00:56:58;;;;;;;14.38;9.70;;;;;;;;;;1757404;81;21248;-77
2022/06/15 00:59:33;;;;;;;15.00;8.93;;;;;;;;;;1761080;80;21141;-78
2022/06/15 01:02:06;;;;;;;16.60;9.70;;;;;;;;;;1804207;78;21624;-79
2022/06/15 01:04:41;;;;;;;15.00;9.08;;;;;;;;;;1787885;79;21146;-78
2022/06/15 01:07:14;;;;;;;17.30;9.43;;;;;;;;;;1766283;80;21258;-81
2022/06/15 01:09:54;;;;;;;13.43;9.40;;;;;;;;;;1764518;80;21558;-79
2022/06/15 01:12:36;;;;;;;11.33;8.60;;;;;;;;;;1749175;80;21266;-77
2022/06/15 01:15:13;;;;;;;13.13;8.78;;;;;;;;;;1790001;79;21104;-80
2022/06/15 01:17:50;;;;;;;18.75;9.48;;;;;;;;;;1760223;80;21247;-78
2022/06/15 01:20:26;;;;;;;14.95;9.73;;;;;;;;;;1737898;79;21193;-79
2022/06/15 01:23:01;;;;;;;16.25;9.50;;;;;;;;;;1823290;78;21165;-79
2022/06/15 01:25:36;;;;;;;14.58;9.28;;;;;;;;;;1791866;78;21216;-79
2022/06/15 01:28:11;;;;;;;16.37;9.23;;;;;;;;;;1808505;78;21659;-79
2022/06/15 01:30:45;;;;;;;14.30;8.88;;;;;;;;;;1785690;80;21821;-81
2022/06/15 01:33:19;;;;;;;13.68;9.45;;;;;;;;;;1768810;79;21698;-79
2022/06/15 01:35:54;;;;;;;13.53;9.45;;;;;;;;;;1789375;78;21182;-80
2022/06/15 01:38:27;;;;;;;17.37;9.55;;;;;;;;;;1754676;80;21600;-80
2022/06/15 01:41:01;;;;;;;16.62;9.00;;;;;;;;;;1802697;78;21150;-78
2022/06/15 01:43:36;;;;;;;15.90;9.30;;;;;;;;;;1809907;78;21180;-79
2022/06/15 01:46:10;;;;;;;16.20;9.48;;;;;;;;;;1797501;77;21268;-79
2022/06/15 01:48:48;;;;;;;16.55;10.45;;;;;;;;;;1797292;79;21154;-79
2022/06/15 01:51:24;;;;;;;12.28;9.03;;;;;;;;;;1764371;80;21224;-80
2022/06/15 01:53:59;;;;;;;12.98;9.23;;;;;;;;;;1796578;79;21193;-80
2022/06/15 01:56:36;;;;;;;12.68;8.65;;;;;;;;;;1794493;79;21155;-79
2022/06/15 01:59:33;;;;;;;16.23;8.60;;;;;;;;;;1766992;80;21641;-80
2022/06/15 02:02:09;;;;;;;17.10;9.87;;;;;;;;;;1763968;80;21147;-80
2022/06/15 02:04:45;;;;;;;15.33;9.07;;;;;;;;;;1793516;78;22218;-80
2022/06/15 02:07:19;;;;;;;17.82;9.58;;;;;;;;;;1783573;79;21323;-78
2022/06/15 02:09:53;;;;;;;15.32;9.15;;;;;;;;;;1782745;79;21194;-79
2022/06/15 02:12:28;;;;;;;12.82;9.25;;;;;;;;;;1784781;79;21123;-81
2022/06/15 02:15:05;;;;;;;14.70;9.13;;;;;;;;;;1787370;79;21249;-80
2022/06/15 02:17:41;;;;;;;16.27;9.35;;;;;;;;;;1777081;80;21157;-79
2022/06/15 02:20:13;;;;;;;;;;;;;;;;;;1806767;78;21188;-79
2022/06/15 02:22:49;;;;;;;15.78;8.00;;;;;;;;;;1763468;80;20403;-80
2022/06/15 02:25:22;;;;;;;;;;;;;;;;;;1756142;80;21915;-80
2022/06/15 02:27:56;;;;;;;11.68;8.35;;;;;;;;;;1759353;80;20507;-81
2022/06/15 02:30:32;;;;;;;13.58;8.95;;;;;;;;;;1769404;80;21181;-80
2022/06/15 02:33:09;;;;;;;12.95;8.63;;;;;;;;;;1798258;78;21451;-80
2022/06/15 02:35:44;;;;;;;13.80;7.75;;;;;;;;;;1807362;78;21131;-81
2022/06/15 02:38:18;;;;;;;14.55;9.15;;;;;;;;;;1806432;78;21114;-81
2022/06/15 02:40:51;;;;;;;13.15;8.48;;;;;;;;;;1804739;79;21184;-80
2022/06/15 02:43:28;;;;;;;18.35;9.40;;;;;;;;;;1814164;79;21201;-78
2022/06/15 02:46:03;;;;;;;;;;;;;;;;;;1793375;79;21261;-80
2022/06/15 02:48:38;;;;;;;10.48;7.80;;;;;;;;;;1798742;78;20209;-78
2022/06/15 02:51:22;;;;;;;15.25;7.58;;;;;;;;;;1781088;78;21225;-80
2022/06/15 02:53:58;;;;;;;12.90;7.53;;;;;;;;;;1794650;79;21122;-80
2022/06/15 02:56:35;;;;;;;11.63;6.97;;;;;;;;;;1797209;78;21198;-80
2022/06/15 02:59:10;;;;;;;8.93;6.75;;;;;;;;;;1792760;78;21150;-79
2022/06/15 03:01:46;;;;;;;19.13;8.10;;;;;;;;;;1801908;78;21162;-80
2022/06/15 03:04:20;;;;;;;13.87;7.20;;;;;;;;;;1789366;79;21161;-79
2022/06/15 03:06:53;;;;;;;13.45;7.67;;;;;;;;;;1793624;78;21118;-80
2022/06/15 03:09:27;;;;;;;15.60;8.03;;;;;;;;;;1772166;80;21203;-78
2022/06/15 03:12:00;;;;;;;13.03;7.30;;;;;;;;;;1796550;78;21174;-80
2022/06/15 03:14:34;;;;;;;11.60;7.78;;;;;;;;;;1798530;78;21224;-80
2022/06/15 03:17:08;;;;;;;10.88;7.35;;;;;;;;;;1793273;79;21175;-80
2022/06/15 03:19:43;;;;;;;11.20;6.92;;;;;;;;;;1767534;80;21130;-80
2022/06/15 03:22:16;;;;;;;8.45;6.22;;;;;;;;;;1772950;80;21147;-80
2022/06/15 03:24:50;;;;;;;13.32;7.83;;;;;;;;;;1798935;78;21274;-79
2022/06/15 03:27:23;;;;;;;10.80;7.03;;;;;;;;;;1794961;79;21259;-80
2022/06/15 03:29:57;;;;;;;10.25;6.80;;;;;;;;;;1764458;80;21206;-79
2022/06/15 03:32:30;;;;;;;12.73;8.33;;;;;;;;;;1763624;80;21135;-78
2022/06/15 03:35:04;;;;;;;15.15;8.45;;;;;;;;;;1804259;78;21288;-80
2022/06/15 03:37:41;;;;;;;11.28;7.20;;;;;;;;;;1765372;80;21104;-80
2022/06/15 03:40:13;;;;;;;13.38;7.75;;;;;;;;;;1756677;80;21103;-80
2022/06/15 03:42:46;;;;;;;11.75;7.62;;;;;;;;;;1765328;80;21263;-79
2022/06/15 03:45:19;;;;;;;11.57;7.50;;;;;;;;;;1803447;78;21187;-79
2022/06/15 03:47:57;;;;;;;11.30;7.15;;;;;;;;;;1769311;80;21768;-79
2022/06/15 03:50:29;;;;;;;11.88;6.97;;;;;;;;;;1811006;78;21123;-79
2022/06/15 03:53:03;;;;;;;17.27;8.08;;;;;;;;;;1765787;80;21206;-79
2022/06/15 03:55:37;;;;;;;14.35;7.90;;;;;;;;;;1796703;79;21177;-79
2022/06/15 03:58:12;;;;;;;14.38;8.08;;;;;;;;;;1782038;79;21107;-80
2022/06/15 04:00:45;;;;;;;14.05;8.35;;;;;;;;;;1781478;79;21166;-80
2022/06/15 04:03:17;;;;;;;12.15;7.55;;;;;;;;;;1788933;79;21109;-79
2022/06/15 04:05:52;;;;;;;11.43;7.70;;;;;;;;;;1786163;79;21214;-81
2022/06/15 04:10:58;;;;;;;13.80;7.78;;;;;;;;;;1779848;80;21147;-80
2022/06/15 04:13:32;;;;;;;12.33;7.77;;;;;;;;;;1780366;80;21158;-80
2022/06/15 04:16:05;;;;;;;16.02;8.35;;;;;;;;;;1782396;79;21126;-80
2022/06/15 04:18:36;;;;;;;29.37;10.53;;;;;;;;;;1780279;79;21696;-81
2022/06/15 04:21:07;;;;;;;12.37;8.08;;;;;;;;;;1789574;79;21123;-81
2022/06/15 04:23:38;;;;;;;11.78;7.42;;;;;;;;;;1798022;79;21230;-80
2022/06/15 04:26:10;;;;;;;14.38;7.90;;;;;;;;;;1779725;80;21205;-80
2022/06/15 04:28:43;;;;;;;11.10;7.47;;;;;;;;;;1784203;79;21150;-80
2022/06/15 04:31:14;;;;;;;14.20;7.80;;;;;;;;;;1756999;80;21182;-79
2022/06/15 04:33:45;;;;;;;8.98;6.17;;;;;;;;;;1781418;80;21180;-78
2022/06/15 04:36:17;;;;;;;11.80;6.83;;;;;;;;;;1789575;79;21176;-80
2022/06/15 04:38:47;;;;;;;11.83;7.05;;;31.90;99.90;;;;;;1783305;79;21160;-80
2022/06/15 04:41:19;;;;;;;8.53;6.17;;;;;;;;;;1794475;79;21201;-80
2022/06/15 04:43:50;;;;;;;12.93;7.42;;;;;;;;;;1798139;79;21277;-81
2022/06/15 04:46:21;;;;;;;10.90;7.53;;;;;;;;;;1764646;80;21211;-79
2022/06/15 04:48:52;;;;;;;11.73;6.47;;;;;;;;;;1805811;78;21701;-80
2022/06/15 04:51:24;;;;;;;12.63;6.72;;;;;;;;;;1779734;79;21752;-79
2022/06/15 04:53:56;;;;;;;22.15;10.08;;;;;;;;;;1752953;80;21156;-80
2022/06/15 04:56:27;;;;;;;10.32;6.62;;;;;;;;;;1775276;80;21750;-80
2022/06/15 04:58:58;;;;;;;10.50;6.83;;;;;;;;;;1800279;79;21200;-80
2022/06/15 05:01:28;;;;;;;10.40;7.22;;;;;;;;;;1802775;79;21130;-79
2022/06/15 05:03:59;;;;;;;13.13;6.95;;;;;;;;;;1801155;79;21175;-80
2022/06/15 05:06:31;;;;;;;11.05;7.12;;;;;;;;;;1805175;79;21278;-80
2022/06/15 05:09:03;;;;;;;10.58;6.33;;;;;;;;;;1788706;79;21222;-80
2022/06/15 05:11:33;;;;;;;11.18;7.00;;;;;;;;;;1791469;79;21140;-80
2022/06/15 05:14:04;;;;;;;14.87;7.28;;;;;;;;;;1794819;79;21172;-80
2022/06/15 05:16:35;;;;;;;12.50;6.87;;;;;;;;;;1794279;79;21160;-80
2022/06/15 05:19:05;;;;;;;13.95;7.30;;;;;;;;;;1758716;80;21194;-81
2022/06/15 05:21:38;;;;;;;15.93;6.92;;;32.30;99.90;;;;;;1785245;79;21213;-80
2022/06/15 05:24:09;;;;;;;12.47;6.53;;;32.70;99.90;;;;;;1805607;79;21416;-80
2022/06/15 05:26:41;;;;;;;12.35;7.08;;;;;;;;;;1802039;79;21645;-81
2022/06/15 05:29:12;;;;;;;11.50;6.00;;;;;;;;;;1807912;78;21202;-80
2022/06/15 05:31:46;;;;;;;9.88;5.95;;;;;;;;;;1762218;80;21156;-81
2022/06/15 05:34:20;;;;;;;11.03;6.35;;;;;;;;;;1791053;79;21152;-79
2022/06/15 05:36:53;;;;;;;10.50;6.28;;;;;;;;;;1797003;79;21184;-80
2022/06/15 05:39:26;;;;;;;15.88;6.22;;;;;;;;;;1791459;79;21148;-79
2022/06/15 05:41:58;;;;;;;9.38;6.78;;;;;;;;;;1786216;79;21074;-80
2022/06/15 05:44:43;;;;;;;11.40;7.00;;;;;;;;;;1793667;79;21531;-80
2022/06/15 05:47:05;;;;;;;13.98;7.42;;;;;;;;;;1791912;79;21225;-80
2022/06/15 05:49:39;;;;;;;12.00;7.10;;;;;;;;;;1785679;79;21618;-80
2022/06/15 05:52:11;;;;;;;11.90;7.33;;;;;;;;;;1785676;79;21234;-81
2022/06/15 05:54:43;;;;;;;11.95;6.97;;;;;;;;;;1768046;80;21240;-79
2022/06/15 05:57:18;;;;;;;11.75;7.30;;;;;;;;;;1769730;80;21149;-79
2022/06/15 05:59:50;;;;;;;15.03;6.95;;;;;;;;;;1732401;82;21703;-80
2022/06/15 06:02:23;;;;;;;10.38;6.17;;;;;;;;;;1746551;81;21191;-81
2022/06/15 06:04:54;;;;;;;11.95;6.00;;;;;;;;;;1751925;80;21301;-79
2022/06/15 06:07:26;;;;;;;12.50;6.25;;;;;;;;;;1730901;81;21138;-81
2022/06/15 06:09:57;;;;;;;11.30;6.47;;;;;;;;;;1742643;81;21252;-80
2022/06/15 06:12:29;;;;;;;10.50;6.72;;;;;;;;;;1746573;81;21215;-80
2022/06/15 06:15:00;;;;;;;8.15;5.55;;;;;;;;;;1759180;81;21210;-80
2022/06/15 06:17:32;;;;;;;11.50;5.80;;;;;;;;;;1755755;80;21293;-80
2022/06/15 06:20:04;;;;;;;12.07;6.65;;;;;;;;;;1743177;81;21110;-80
2022/06/15 06:22:37;;;;;;;7.97;5.80;;;;;;;;;;1777814;80;21194;-79
2022/06/15 06:25:10;;;;;;;9.45;6.03;;;;;;;;;;1770576;80;21109;-79
2022/06/15 06:27:43;;;;;;;9.28;6.20;;;;;;;;;;1777624;80;21211;-79
2022/06/15 06:30:15;;;;;;;9.63;6.53;;;;;;;;;;1742366;81;21265;-78
2022/06/15 06:32:46;;;;;;;10.90;5.92;;;;;;;;;;1733693;82;21218;-79
2022/06/15 06:35:17;;;;;;;9.33;5.80;;;;;;;;;;1733366;81;21272;-80
2022/06/15 06:37:49;;;;;;;12.37;5.67;;;;;;;;;;1768894;80;21089;-80
2022/06/15 06:40:20;;;;;;;10.43;6.20;;;;;;;;;;1730459;82;21308;-81
2022/06/15 06:42:51;;;;;;;13.28;5.90;;;33.90;99.90;;;;;;1742346;81;21170;-79
2022/06/15 06:45:21;;;;;;;14.20;5.60;;;;;;;;;;1766059;80;21584;-80
2022/06/15 06:47:52;;;;;;;11.70;5.70;;;33.90;99.90;;;;;;1735483;81;21115;-80
2022/06/15 06:50:25;;;;;;;10.55;5.50;;;;;;;;;;1739626;81;21197;-80
2022/06/15 06:52:55;;;;;;;9.48;5.25;;;;;;;;;;1763252;78;21265;-78
2022/06/15 06:55:28;;;;;;;8.50;5.10;;;33.50;99.90;;;;;;1789170;78;21173;-80
2022/06/15 06:57:59;;;;;;;10.68;4.90;;;;;;;;;;1783615;80;21138;-81
2022/06/15 07:00:30;;;;;;;8.70;4.80;;;;;;;;;;1781120;79;21110;-81
2022/06/15 07:03:05;;;;;;;9.95;4.90;;;;;;;;;;1818443;78;21620;-81
2022/06/15 07:05:37;;;;;;;9.43;5.33;;;;;;;;;;1824420;78;21147;-82
2022/06/15 07:08:10;;;;;;;8.90;5.65;;;33.50;99.90;;;;;;1816669;78;21247;-82
2022/06/15 07:10:41;;;;;;;7.22;5.25;;;;;;;;;;1781710;79;21288;-82
2022/06/15 07:13:13;;;;;;;14.63;5.42;;;;;;;;;;1809567;78;21182;-81
2022/06/15 07:15:44;;;;;;;7.53;4.30;;;;;;;;;;1801788;79;21173;-82
2022/06/15 07:18:15;;;;;;;8.20;4.50;;;;;;;;;;1822349;78;21174;-81
2022/06/15 07:20:46;;;;;;;8.58;4.50;;;33.50;99.90;;;;;;1817174;76;21233;-80
2022/06/15 07:23:17;;;;;;;9.78;4.75;;;33.50;99.90;;;;;;1841685;76;21664;-81
2022/06/15 07:25:48;;;;;;;8.93;4.60;;;;;;;;;;1839269;76;21134;-81
2022/06/15 07:28:18;;;;;;;13.40;5.30;;;;;;;;;;1844757;77;21198;-81
2022/06/15 07:30:49;;;;;;;7.65;4.50;;;;;;;;;;1834402;77;21638;-81
2022/06/15 07:33:20;;;;;;;11.83;4.80;;;;;;;;;;1840896;77;21231;-82
2022/06/15 07:35:51;;;;;;;8.33;4.62;;;;;;;;;;1843515;77;21188;-82
2022/06/15 07:38:22;;;;;;;11.33;5.17;;;;;;;;;;1844384;76;21157;-81
2022/06/15 07:40:54;;;;;;;9.33;4.22;;;;;;;;;;1835366;77;21175;-81
2022/06/15 07:43:25;;;;;;;5.90;3.72;;;;;;;;;;1784886;79;21201;-81
2022/06/15 07:45:56;;;;;;;8.80;4.03;;;;;;;;;;1835101;77;21245;-81
2022/06/15 07:50:59;;;;;;;8.58;4.50;;;;;;;;;;1800130;79;21183;-79
2022/06/15 07:53:30;;;;;;;10.15;5.67;;;;;;;;;;1835965;77;21171;-79
2022/06/15 07:56:01;;;;;;;9.53;5.12;;;;;;;;;;1821911;77;21149;-79
2022/06/15 07:58:32;;;;;;;6.80;4.17;;;;;;;;;;1792994;79;21192;-80
2022/06/15 08:01:03;;;;;;;7.78;4.22;;;;;;;;;;1771646;80;21149;-80
2022/06/15 08:03:35;;;;;;;5.47;3.47;;;;;;;;;;1765105;81;21236;-81
2022/06/15 08:06:06;;;;;;;8.28;4.17;;;;;;;;;;1763915;81;21119;-81
2022/06/15 08:08:37;;;;;;;5.90;3.90;;;;;;;;;;1765799;81;21205;-81
2022/06/15 08:11:07;;;;;;;10.30;4.45;;;;;;;;;;1766129;81;21234;-81
2022/06/15 08:13:39;;;;;;;6.67;4.37;;;;;;;;;;1765581;81;21583;-80
2022/06/15 08:16:10;;;;;;;7.30;4.45;;;;;;;;;;1766953;81;21079;-79
2022/06/15 08:18:42;;;;;;;6.70;3.92;;;;;;;;;;1764234;81;21166;-79
2022/06/15 08:21:14;;;;;;;11.63;4.55;;;;;;;;;;1761960;81;21207;-81
2022/06/15 08:23:47;;;;;;;7.28;3.45;;;;;;;;;;1764106;81;21108;-80
2022/06/15 08:26:20;;;;;;;10.68;4.10;;;;;;;;;;1765500;81;21599;-80
2022/06/15 08:28:52;;;;;;;9.23;3.47;;;;;;;;;;1764001;81;21095;-79
2022/06/15 08:31:23;;;;;;;4.85;3.33;;;;;;;;;;1765231;81;21139;-80
2022/06/15 08:33:54;;;;;;;7.80;3.45;;;;;;;;;;1776998;79;21115;-81
2022/06/15 08:36:25;;;;;;;9.20;3.70;;;;;;;;;;1786508;79;21224;-80
2022/06/15 08:38:56;;;;;;;7.75;3.45;;;;;;;;;;1784137;79;21206;-81
2022/06/15 08:41:28;;;;;;;8.38;3.50;;;;;;;;;;1758696;80;21301;-81
2022/06/15 08:44:00;;;;;;;8.98;3.12;;;;;;;;;;1746509;80;21126;-79
2022/06/15 08:46:33;;;;;;;7.55;3.12;;;;;;;;;;1788707;79;21241;-80
2022/06/15 08:49:05;;;;;;;9.88;3.42;;;;;;;;;;1787223;79;21195;-80
2022/06/15 08:51:37;;;;;;;8.05;3.33;;;;;;;;;;1793657;79;21151;-80
2022/06/15 08:54:12;;;;;;;10.98;3.92;;;;;;;;;;1744625;80;21145;-79
2022/06/15 08:56:46;;;;;;;11.18;4.25;;;;;;;;;;1803362;78;21150;-79
2022/06/15 08:59:17;;;;;;;8.75;4.20;;;;;;;;;;1844450;77;21148;-82
2022/06/15 09:01:50;;;;;;;9.38;3.90;;;;;;;;;;1848616;76;21076;-83
2022/06/15 09:04:22;;;;;;;8.28;3.60;;;;;;;;;;1845969;76;21185;-82
2022/06/15 09:06:56;;;;;;;10.40;3.87;;;;;;;;;;1849629;76;21096;-82
2022/06/15 09:09:29;;;;;;;9.88;4.28;;;;;;;;;;1847512;76;21075;-81
2022/06/15 09:14:36;;;;;;;7.83;4.25;;;;;;;;;;1842139;76;21130;-81
2022/06/15 09:17:15;;;;;;;7.45;3.92;;;;;;;;;;1845573;77;21163;-84
2022/06/15 09:19:50;;;;;;;11.15;4.30;;;;;;;;;;1843546;77;21132;-80
2022/06/15 09:22:22;;;;;;;8.43;3.98;;;;;;;;;;1842466;76;21092;-79
2022/06/15 09:24:56;;;;;;;8.48;3.72;;;;;;;;;;1841615;76;21100;-81
2022/06/15 09:27:32;;;;;;;9.30;3.58;;;;;;;;;;1849218;76;21096;-82
2022/06/15 09:30:04;;;;;;;6.80;3.42;;;;;;;;;;1838941;77;21108;-77
2022/06/15 09:32:39;;;;;;;7.78;3.52;;;;;;;;;;1841889;76;21165;-80
2022/06/15 09:35:10;;;;;;;7.00;3.67;;;;;;;;;;1842573;76;21191;-77
2022/06/15 09:37:44;;;;;;;5.00;3.20;;;;;;;;;;1841025;76;21193;-76
2022/06/15 09:40:15;;;;;;;7.65;3.72;;;;;;;;;;1840330;76;21146;-77
2022/06/15 09:42:47;;;;;;;7.50;3.08;;;;;;;;;;1844136;76;21091;-77
2022/06/15 09:45:17;;;;;;;8.30;3.62;;;;;;;;;;1838259;76;21200;-78
2022/06/15 09:47:49;;;;;;;6.75;3.27;;;;;;;;;;1836315;76;21160;-76
2022/06/15 09:50:24;;;;;;;8.55;4.05;;;;;;;;;;1834141;77;21155;-76
2022/06/15 09:52:57;;;;;;;7.35;3.58;;;;;;;;;;1822554;76;21294;-78
2022/06/15 09:55:31;;;;;;;8.65;4.17;;;;;;;;;;1831733;76;21120;-77
2022/06/15 09:58:05;;;;;;;8.30;4.08;;;;;;;;;;1769273;79;21205;-76
2022/06/15 10:00:37;;;;;;;8.90;4.00;;;;;;;;;;1772184;79;21556;-80
2022/06/15 10:03:16;;;;;;;7.20;3.72;;;;;;;;;;1772766;79;22317;-77
2022/06/15 10:05:48;;;;;;;6.75;3.33;;;;;;;;;;1770720;79;21285;-77
2022/06/15 10:08:20;;;;;;;6.45;3.20;;;;;;;;;;1777506;79;21193;-77
2022/06/15 10:10:52;;;;;;;6.12;3.95;;;;;;;;;;1755678;80;21196;-82
2022/06/15 10:13:22;;;;;;;10.60;6.12;;;;;;;;;;1753207;80;21188;-80
2022/06/15 10:15:54;;;;;;;6.65;3.65;;;;;;;;;;1751424;80;21224;-82
2022/06/15 10:18:26;;;;;;;4.70;3.22;;;;;;;;;;1748531;80;21187;-80
2022/06/15 10:21:03;;;;;;;7.12;3.75;;;;;;;;;;1752010;80;21417;-81
2022/06/15 10:23:35;;;;;;;5.90;3.33;;;;;;;;;;1803827;77;21614;-80
2022/06/15 10:26:08;;;;;;;7.75;3.50;;;;;;;;;;1815325;77;21099;-80
2022/06/15 10:28:57;;;;;;;6.78;3.85;;;;;;;;;;1822618;77;21263;-82
2022/06/15 10:33:26;;;;;;;7.35;3.50;;;;;;;;;;1794228;77;21219;-82
2022/06/15 10:34:51;;;;;;;9.08;3.67;;;;;;;;;;1760314;79;21264;-80
2022/06/15 10:37:27;;;;;;;6.47;4.30;;;;;;;;;;1779662;79;21178;-80
2022/06/15 10:40:03;;;;;;;10.60;4.60;;;;;;;;;;1785386;79;21215;-80
2022/06/15 10:42:38;;;;;;;11.53;4.47;;;;;;;;;;1779732;79;21166;-81
2022/06/15 10:45:12;;;;;;;8.03;4.35;;;;;;;;;;1794542;79;21292;-81
2022/06/15 10:47:49;;;;;;;11.65;5.00;;;;;;;;;;1778537;79;21174;-81
2022/06/15 10:50:19;;;;;;;11.15;4.87;;;;;;;;;;1775492;79;21208;-81
2022/06/15 10:52:54;;;;;;;7.67;4.40;;;;;;;;;;1781767;79;22025;-82
2022/06/15 11:03:17;;;;;;;10.55;5.28;;;;;;;;;;1779201;79;21257;-81
2022/06/15 11:05:55;;;;;;;11.08;5.53;;;;;;;;;;1773854;79;21182;-82
2022/06/15 11:08:29;;;;;;;;;;;;;;;;;;1768061;80;21160;-83
2022/06/15 11:11:03;;;;;;;12.58;5.28;;;;;;;;;;1752584;80;20494;-83
2022/06/15 11:13:39;;;;;;;14.55;5.55;;;;;;;;;;1771803;80;21569;-82
2022/06/15 11:18:45;;;;;;;9.08;4.80;;;;;;;;;;1810214;77;21202;-83
2022/06/15 11:21:22;;;;;;;7.12;4.62;;;;;;;;;;1822255;77;21238;-82
2022/06/15 11:23:51;;;;;;;10.48;5.00;;;;;;;;;;1779336;80;21174;-82
2022/06/15 11:28:58;;;;;;;9.43;5.12;;;;;;;;;;1794438;79;21630;-81
2022/06/15 11:31:31;;;;;;;9.55;5.17;;;;;;;;;;1787095;78;21913;-83
2022/06/15 11:34:06;;;;;;;10.98;5.53;;;;;;;;;;1792884;79;21160;-82
2022/06/15 11:36:43;;;;;;;11.33;5.60;;;;;;;;;;1787552;78;21170;-82
2022/06/15 11:39:17;;;;;;;9.23;5.35;;;;;;;;;;1743857;80;21245;-82
2022/06/15 11:41:48;;;;;;;8.83;5.17;;;;;;;;;;1755038;80;21576;-81
2022/06/15 11:44:21;;;;;;;11.57;5.35;;;;;;;;;;1788866;79;21182;-83
2022/06/15 11:46:52;;;;;;;12.53;4.90;;;;;;;;;;1753778;81;21187;-83
2022/06/15 11:49:24;;;;;;;7.83;5.37;;;;;;;;;;1783292;79;21252;-83
2022/06/15 11:51:56;;;;;;;12.33;5.65;;;;;;;;;;1788881;79;21715;-82
2022/06/15 11:54:30;;;;;;;11.73;5.42;;;;;;;;;;1794562;79;21194;-82
2022/06/15 11:57:04;;;;;;;11.65;5.65;;;;;;;;;;1781834;79;21284;-82
2022/06/15 11:59:37;;;;;;;9.08;4.97;;;;;;;;;;1792917;78;21174;-81
2022/06/15 12:02:12;;;;;;;7.92;5.08;;;;;;;;;;1799082;78;21150;-81
2022/06/15 12:04:48;;;;;;;7.05;5.37;;;;;;;;;;1771173;79;21142;-82
2022/06/15 12:07:37;;;;;;;12.45;5.05;;;;;;;;;;1811899;78;21114;-82
2022/06/15 12:10:01;;;;;;;6.87;4.80;;;;;;;;;;1788962;78;21162;-81
2022/06/15 12:12:39;;;;;;;8.23;5.00;;;;;;;;;;1794534;79;21190;-81
2022/06/15 12:15:12;;;;;;;7.92;5.17;;;;;;;;;;1777956;80;21099;-78
2022/06/15 12:17:47;;;;;;;8.98;5.20;;;;;;;;;;1841964;77;21144;-81
2022/06/15 12:20:23;;;;;;;10.90;6.87;;;;;;;;;;1840500;76;21191;-81
2022/06/15 12:22:59;;;;;;;123.55;103.32;;;;;;;;;;1781300;78;21127;-80
2022/06/15 12:25:35;;;;;;;29.90;20.30;;;;;;;;;;1787886;80;21149;-81
2022/06/15 12:28:11;;;;;;;11.88;6.00;;;;;;;;;;1796421;78;21250;-81
2022/06/15 12:30:46;;;;;;;10.48;6.00;;;;;;;;;;1791070;79;21129;-81
2022/06/15 12:33:23;;;;;;;9.55;5.47;;;;;;;;;;1779707;80;21235;-81
2022/06/15 12:36:00;;;;;;;14.98;6.65;;;;;;;;;;1790078;78;21163;-80
2022/06/15 12:38:35;;;;;;;15.18;6.53;;;;;;;;;;1801902;78;22063;-80
2022/06/15 12:43:48;;;;;;;10.55;6.45;;;;;;;;;;1820676;77;21264;-81
2022/06/15 12:46:25;;;;;;;44.00;30.80;;;;;;;;;;1806059;77;21181;-80
2022/06/15 12:49:00;;;;;;;11.80;6.92;;;;;;;;;;1818552;78;21169;-82
2022/06/15 12:51:35;;;;;;;35.70;31.75;;;;;;;;;;1806001;78;21139;-81
2022/06/15 12:54:13;;;;;;;48.90;40.50;;;;;;;;;;1815459;77;21251;-82
2022/06/15 12:56:48;;;;;;;60.27;53.93;;;;;;;;;;1833846;76;21094;-80
2022/06/15 12:59:23;;;;;;;54.83;46.60;;;;;;;;;;1832402;76;21835;-81
2022/06/15 13:02:02;;;;;;;28.02;22.32;;;;;;;;;;1820915;77;21234;-82
2022/06/15 13:04:37;;;;;;;14.28;9.70;;;;;;;;;;1838598;77;21186;-81
2022/06/15 13:07:11;;;;;;;15.83;8.53;;;;;;;;;;1824962;77;21164;-81
2022/06/15 13:09:46;;;;;;;13.43;8.38;;;;;;;;;;1816593;77;21635;-80
2022/06/15 13:12:19;;;;;;;15.58;7.60;;;;;;;;;;1826489;77;21156;-80
2022/06/15 13:14:58;;;;;;;15.28;11.33;;;;;;;;;;1824543;77;21715;-79
2022/06/15 13:17:31;;;;;;;125.02;103.17;;;;;;;;;;1817926;77;21146;-80
2022/06/15 13:20:05;;;;;;;261.57;234.20;;;;;;;;;;1833920;77;21161;-81
2022/06/15 13:22:37;;;;;;;17.25;11.05;;;;;;;;;;1825039;77;21142;-83
2022/06/15 13:25:09;;;;;;;16.12;7.95;;;;;;;;;;1788389;78;21147;-81
2022/06/15 13:27:40;;;;;;;11.90;6.65;;;;;;;;;;1811547;77;21178;-81
2022/06/15 13:30:19;;;;;;;10.63;6.92;;;;;;;;;;1809273;79;21275;-81
2022/06/15 13:32:57;;;;;;;12.18;6.60;;;;;;;;;;1829150;77;21131;-81
2022/06/15 13:35:30;;;;;;;14.33;6.80;;;27.50;98.70;;;;;;1768773;79;21155;-82
2022/06/15 13:38:02;;;;;;;13.50;6.30;;;27.70;99.10;;;;;;1819760;77;21142;-82
2022/06/15 13:40:35;;;;;;;12.98;5.95;;;27.70;99.10;;;;;;1823568;77;21535;-80
2022/06/15 13:43:06;;;;;;;11.30;5.20;;;27.60;99.20;;;;;;1825857;77;21655;-81
2022/06/15 13:45:38;;;;;;;7.35;4.75;;;27.60;98.80;;;;;;1822238;77;21252;-81
2022/06/15 13:48:13;;;;;;;8.78;5.45;;;27.60;98.20;;;;;;1823190;77;21167;-81
2022/06/15 13:50:45;;;;;;;10.98;5.92;;;27.60;98.70;;;;;;1809063;77;21579;-82
2022/06/15 13:53:18;;;;;;;8.68;5.55;;;27.60;98.20;;;;;;1822576;77;21180;-82
2022/06/15 13:55:50;;;;;;;10.15;6.08;;;27.70;98.30;;;;;;1813523;77;21110;-81
2022/06/15 13:58:26;;;;;;;11.38;6.35;;;27.70;98.50;;;;;;1830920;77;21184;-82
2022/06/15 14:00:58;;;;;;;9.28;5.45;;;27.70;98.20;;;;;;1822074;77;21806;-81
2022/06/15 14:03:31;;;;;;;9.85;5.40;;;27.70;98.40;;;;;;1809101;77;21692;-80
2022/06/15 14:06:04;;;;;;;7.05;4.55;;;27.70;98.20;;;;;;1804759;77;21535;-82
2022/06/15 14:08:38;;;;;;;9.68;5.00;;;27.70;97.80;;;;;;1807348;77;21100;-81
2022/06/15 14:11:13;;;;;;;8.05;4.90;;;27.70;97.90;;;;;;1815134;77;21755;-80
2022/06/15 14:13:48;;;;;;;8.30;4.17;;;27.70;97.70;;;;;;1836895;77;21149;-83
2022/06/15 14:16:21;;;;;;;7.05;4.10;;;27.60;97.70;;;;;;1816462;78;21138;-82
2022/06/15 14:19:00;;;;;;;8.45;4.20;;;27.60;97.60;;;;;;1817445;77;21215;-82
2022/06/15 14:21:33;;;;;;;6.10;4.03;;;27.60;97.70;;;;;;1821306;77;21139;-81
2022/06/15 14:24:06;;;;;;;6.55;4.45;;;27.60;97.70;;;;;;1819002;77;21175;-81
2022/06/15 14:26:39;;;;;;;7.62;4.55;;;27.60;97.70;;;;;;1811102;78;21226;-82
2022/06/15 14:29:12;;;;;;;9.60;4.15;;;27.60;97.80;;;;;;1829583;77;21237;-81
2022/06/15 14:31:45;;;;;;;7.30;4.47;;;27.60;97.80;;;;;;1827594;77;21082;-80
2022/06/15 14:34:19;;;;;;;6.67;4.22;;;27.60;97.80;;;;;;1839240;77;21124;-80
2022/06/15 14:36:54;;;;;;;7.40;4.65;;;27.60;97.80;;;;;;1820608;77;21158;-81
2022/06/15 14:39:26;;;;;;;10.82;5.05;;;27.60;97.80;;;;;;1810904;77;21155;-82
2022/06/15 14:41:59;;;;;;;8.18;4.85;;;27.60;97.80;;;;;;1821292;77;21198;-81
2022/06/15 14:44:37;;;;;;;7.72;4.15;;;27.60;97.90;;;;;;1816807;77;21684;-82
2022/06/15 14:47:10;;;;;;;9.30;4.60;;;27.60;98.10;;;;;;1816955;77;21156;-82
2022/06/15 14:49:47;;;;;;;7.35;4.00;;;27.60;98.20;;;;;;1815584;77;21182;-81
2022/06/15 14:52:19;;;;;;;6.92;4.10;;;27.60;98.40;;;;;;1821931;77;21273;-81
2022/06/15 14:54:52;;;;;;;7.50;4.35;;;27.50;98.30;;;;;;1809321;77;21172;-82
2022/06/15 14:57:26;;;;;;;8.10;4.08;;;27.50;98.50;;;;;;1818315;78;21625;-82
2022/06/15 15:00:00;;;;;;;6.03;3.62;;;27.40;98.60;;;;;;1823920;77;21688;-81
2022/06/15 15:02:40;;;;;;;7.60;4.55;;;27.40;98.70;;;;;;1815213;77;21177;-80
2022/06/15 15:05:12;;;;;;;7.03;4.03;;;27.40;98.80;;;;;;1813089;77;21862;-82
2022/06/15 15:10:19;;;;;;;7.10;4.33;;;27.40;99.10;;;;;;1802943;77;21573;-80
2022/06/15 15:12:52;;;;;;;7.08;4.35;;;27.40;99.20;;;;;;1807708;78;21216;-80
2022/06/15 15:15:23;;;;;;;8.13;4.03;;;27.40;99.30;;;;;;1817004;77;21083;-81
2022/06/15 15:17:59;;;;;;;7.60;4.47;;;27.40;99.20;;;;;;1801706;77;21099;-81